Maike D — V2FO4 — position and weather

sailwx.info

Track history (hours):
 
Tides and Currents Weather Stations Pressure Air Temp Water Temp Dewpoint Dewpoint Depression Visibility Wind Speed Wind Dir Waves Ship Positions

Maike D

Last reported at 2014-Aug-22 08:27 UTC. Time now 2014-Aug-23 15:25 UTC.
Position N 41°24' E 029°35'.

Length 133 m; draft 6.7 m.

Type: Ship (hazmat cat A). MMSI: 305739000.

Date/timePositionNaut miles runAvg speedWind from/ knotsBaromVisibWave heightAir tempDewpointWater temp
2014-Aug-22 08:27N 41°24' E 029°35'1314.1
2014-Aug-22 07:32N 41°18' E 029°20'2511.4
2014-Aug-22 05:21N 40°59' E 028°60'1011.3
2014-Aug-22 04:30N 40°49' E 028°59'8 6.9
2014-Aug-22 03:22N 40°42' E 028°55'2 0.8
2014-Aug-22 01:19N 40°43' E 028°57'1 0.9
2014-Aug-22 00:13N 40°44' E 028°58'1 1.2
2014-Aug-21 23:31N 40°44' E 028°59'1 1.2
2014-Aug-21 22:25N 40°45' E 028°59'1 1.3
2014-Aug-21 21:25N 40°47' E 029°00'1 1.3
2014-Aug-21 20:19N 40°48' E 029°01'2 2.3
2014-Aug-21 19:33N 40°47' E 029°03'1313.0
2014-Aug-21 18:32N 40°45' E 029°20'8 0.7
2014-Aug-21 06:26N 40°45' E 029°31'910.2
2014-Aug-21 05:31N 40°44' E 029°19'1313.6
2014-Aug-21 04:33N 40°43' E 029°01'1413.6
2014-Aug-21 03:33N 40°43' E 028°43'16310.9
2014-Aug-20 12:33N 39°14' E 025°45'1312.5
2014-Aug-20 11:33N 39°02' E 025°43'1312.8
2014-Aug-20 10:31N 38°48' E 025°45'1312.9
2014-Aug-20 09:31N 38°36' E 025°46'2713.0
2014-Aug-20 07:27N 38°09' E 025°48'3813.2
2014-Aug-20 04:33N 37°31' E 025°52'1313.1
2014-Aug-20 03:33N 37°19' E 025°59'1313.1
2014-Aug-20 02:33N 37°07' E 026°07'1312.8
2014-Aug-20 01:33N 36°56' E 026°15'1313.0
2014-Aug-20 00:33N 36°47' E 026°26'1312.9
2014-Aug-19 23:33N 36°38' E 026°38'2612.9
2014-Aug-19 21:30N 36°19' E 027°01'34113.1
2014-Aug-18 19:26N 33°30' E 033°02'1513.1
2014-Aug-18 18:17N 33°22' E 033°17'1113.2
2014-Aug-18 17:28N 33°17' E 033°29'1213.2
2014-Aug-18 16:32N 33°11' E 033°42'69 3.0
2014-Aug-17 17:19N 32°52' E 035°00'0 0.0
2014-Aug-16 14:09N 32°52' E 035°00'0 0.0
2014-Aug-16 13:33N 32°52' E 035°00'0 0.0
2014-Aug-15 18:24N 32°52' E 035°00'0 0.1
2014-Aug-15 17:31N 32°52' E 034°60'10 9.2
2014-Aug-15 16:23N 32°47' E 034°49'1112.9
2014-Aug-15 15:33N 32°37' E 034°45'1313.3
2014-Aug-15 14:33N 32°24' E 034°41'1613.7
2014-Aug-15 13:25N 32°09' E 034°36'22 0.9
2014-Aug-14 13:28N 31°56' E 034°15'2016.5
2014-Aug-14 12:16N 32°06' E 033°55'1115.6
2014-Aug-14 11:33N 32°11' E 033°43'5015.8
2014-Aug-14 08:22N 32°41' E 032°55'4516.1
2014-Aug-14 05:33N 33°07' E 032°11'1615.9
2014-Aug-14 04:33N 33°16' E 031°56'1615.8
2014-Aug-14 03:32N 33°26' E 031°40'1515.7
2014-Aug-14 02:34N 33°35' E 031°26'1615.7
2014-Aug-14 01:33N 33°44' E 031°10'3915.8
2014-Aug-13 23:06N 34°06' E 030°32'2715.9
2014-Aug-13 21:25N 34°22' E 030°06'17616.2
2014-Aug-13 10:31N 36°09' E 027°14'1515.9
2014-Aug-13 09:33N 36°20' E 027°01'2015.9
2014-Aug-13 08:17N 36°34' E 026°43'1316.1
2014-Aug-13 07:30N 36°43' E 026°32'1616.4
2014-Aug-13 06:33N 36°54' E 026°18'1616.3
2014-Aug-13 05:33N 37°07' E 026°07'1616.1
2014-Aug-13 04:33N 37°22' E 025°57'1815.9
2014-Aug-13 03:26N 37°39' E 025°51'1915.7
2014-Aug-13 02:13N 37°58' E 025°47'1015.7
2014-Aug-13 01:33N 38°08' E 025°46'1715.9
2014-Aug-13 00:28N 38°25' E 025°43'  
Track history (hours):
 
Tides and Currents Weather Stations Pressure Air Temp Water Temp Dewpoint Dewpoint Depression Visibility Wind Speed Wind Dir Waves Ship Positions

Maike D

Last reported at 2014-Aug-22 08:27 UTC. Time now 2014-Aug-23 15:25 UTC.
Position N 41°24' E 029°35'.

Length 133 m; draft 6.7 m.

Type: Ship (hazmat cat A). MMSI: 305739000.

Date/timePositionNaut miles runAvg speedWind from/ knotsBaromVisibWave heightAir tempDewpointWater temp
2014-Aug-22 08:27N 41°24' E 029°35'1314.1
2014-Aug-22 07:32N 41°18' E 029°20'2511.4
2014-Aug-22 05:21N 40°59' E 028°60'1011.3
2014-Aug-22 04:30N 40°49' E 028°59'8 6.9
2014-Aug-22 03:22N 40°42' E 028°55'2 0.8
2014-Aug-22 01:19N 40°43' E 028°57'1 0.9
2014-Aug-22 00:13N 40°44' E 028°58'1 1.2
2014-Aug-21 23:31N 40°44' E 028°59'1 1.2
2014-Aug-21 22:25N 40°45' E 028°59'1 1.3
2014-Aug-21 21:25N 40°47' E 029°00'1 1.3
2014-Aug-21 20:19N 40°48' E 029°01'2 2.3
2014-Aug-21 19:33N 40°47' E 029°03'1313.0
2014-Aug-21 18:32N 40°45' E 029°20'8 0.7
2014-Aug-21 06:26N 40°45' E 029°31'910.2
2014-Aug-21 05:31N 40°44' E 029°19'1313.6
2014-Aug-21 04:33N 40°43' E 029°01'1413.6
2014-Aug-21 03:33N 40°43' E 028°43'16310.9
2014-Aug-20 12:33N 39°14' E 025°45'1312.5
2014-Aug-20 11:33N 39°02' E 025°43'1312.8
2014-Aug-20 10:31N 38°48' E 025°45'1312.9
2014-Aug-20 09:31N 38°36' E 025°46'2713.0
2014-Aug-20 07:27N 38°09' E 025°48'3813.2
2014-Aug-20 04:33N 37°31' E 025°52'1313.1
2014-Aug-20 03:33N 37°19' E 025°59'1313.1
2014-Aug-20 02:33N 37°07' E 026°07'1312.8
2014-Aug-20 01:33N 36°56' E 026°15'1313.0
2014-Aug-20 00:33N 36°47' E 026°26'1312.9
2014-Aug-19 23:33N 36°38' E 026°38'2612.9
2014-Aug-19 21:30N 36°19' E 027°01'34113.1
2014-Aug-18 19:26N 33°30' E 033°02'1513.1
2014-Aug-18 18:17N 33°22' E 033°17'1113.2
2014-Aug-18 17:28N 33°17' E 033°29'1213.2
2014-Aug-18 16:32N 33°11' E 033°42'69 3.0
2014-Aug-17 17:19N 32°52' E 035°00'0 0.0
2014-Aug-16 14:09N 32°52' E 035°00'0 0.0
2014-Aug-16 13:33N 32°52' E 035°00'0 0.0
2014-Aug-15 18:24N 32°52' E 035°00'0 0.1
2014-Aug-15 17:31N 32°52' E 034°60'10 9.2
2014-Aug-15 16:23N 32°47' E 034°49'1112.9
2014-Aug-15 15:33N 32°37' E 034°45'1313.3
2014-Aug-15 14:33N 32°24' E 034°41'1613.7
2014-Aug-15 13:25N 32°09' E 034°36'22 0.9
2014-Aug-14 13:28N 31°56' E 034°15'2016.5
2014-Aug-14 12:16N 32°06' E 033°55'1115.6
2014-Aug-14 11:33N 32°11' E 033°43'5015.8
2014-Aug-14 08:22N 32°41' E 032°55'4516.1
2014-Aug-14 05:33N 33°07' E 032°11'1615.9
2014-Aug-14 04:33N 33°16' E 031°56'1615.8
2014-Aug-14 03:32N 33°26' E 031°40'1515.7
2014-Aug-14 02:34N 33°35' E 031°26'1615.7
2014-Aug-14 01:33N 33°44' E 031°10'3915.8
2014-Aug-13 23:06N 34°06' E 030°32'2715.9
2014-Aug-13 21:25N 34°22' E 030°06'17616.2
2014-Aug-13 10:31N 36°09' E 027°14'1515.9
2014-Aug-13 09:33N 36°20' E 027°01'2015.9
2014-Aug-13 08:17N 36°34' E 026°43'1316.1
2014-Aug-13 07:30N 36°43' E 026°32'1616.4
2014-Aug-13 06:33N 36°54' E 026°18'1616.3
2014-Aug-13 05:33N 37°07' E 026°07'1616.1
2014-Aug-13 04:33N 37°22' E 025°57'1815.9
2014-Aug-13 03:26N 37°39' E 025°51'1915.7
2014-Aug-13 02:13N 37°58' E 025°47'1015.7
2014-Aug-13 01:33N 38°08' E 025°46'1715.9
2014-Aug-13 00:28N 38°25' E 025°43'  

Dump ship's entire track history